createdAt,value
2019-03-25T00:01:31.933Z,8.15
2019-03-25T00:06:40.395Z,6.91
2019-03-25T00:11:48.858Z,6.04
2019-03-25T00:16:58.488Z,11.65
2019-03-25T00:22:06.870Z,10.42
2019-03-25T00:32:23.337Z,9.77
2019-03-25T00:37:37.586Z,7.78
2019-03-25T00:42:35.938Z,6.92
2019-03-25T00:47:44.466Z,8.85
2019-03-25T00:52:52.894Z,10.55
2019-03-25T00:58:01.349Z,9.77
2019-03-25T01:03:09.869Z,8.51
2019-03-25T01:08:18.316Z,6.84
2019-03-25T01:13:26.788Z,7.95
2019-03-25T01:18:35.295Z,8.68
2019-03-25T01:23:43.750Z,5.57
2019-03-25T01:28:52.320Z,7.26
2019-03-25T01:34:00.747Z,8.24
2019-03-25T01:39:09.292Z,9.05
2019-03-25T01:44:17.762Z,9.12
2019-03-25T01:49:26.244Z,9.44
2019-03-25T01:54:34.603Z,9.04
2019-03-25T01:59:43.031Z,8.06
2019-03-25T02:04:51.412Z,9.21
2019-03-25T02:09:59.816Z,8.26
2019-03-25T02:15:08.175Z,10.95
2019-03-25T02:20:25.914Z,9.78
2019-03-25T02:25:25.404Z,11.11
2019-03-25T02:30:32.427Z,11.27
2019-03-25T02:35:40.781Z,13.80
2019-03-25T02:40:49.191Z,11.93
2019-03-25T02:51:04.676Z,12.27
2019-03-25T02:56:13.027Z,10.17
2019-03-25T03:01:25.503Z,10.27
2019-03-25T03:06:23.893Z,11.13
2019-03-25T03:11:32.371Z,10.01
2019-03-25T03:16:40.813Z,10.26
2019-03-25T03:21:49.330Z,9.88
2019-03-25T03:26:57.831Z,10.43
2019-03-25T03:32:06.663Z,12.07
2019-03-25T03:37:14.826Z,10.56
2019-03-25T03:47:30.658Z,11.89
2019-03-25T03:52:43.529Z,12.33
2019-03-25T03:57:41.895Z,11.02
2019-03-25T04:02:50.277Z,12.29
2019-03-25T04:07:58.880Z,11.21
2019-03-25T04:13:07.447Z,10.63
2019-03-25T04:18:15.964Z,11.66
2019-03-25T04:23:24.522Z,10.34
2019-03-25T04:28:33.077Z,10.93
2019-03-25T04:33:44.287Z,14.59
2019-03-25T04:38:42.694Z,12.42
2019-03-25T04:43:49.933Z,14.66
2019-03-25T04:48:59.864Z,13.57
2019-03-25T04:54:08.399Z,10.89
2019-03-25T04:59:17.057Z,12.20
2019-03-25T05:09:32.768Z,13.37
2019-03-25T05:14:46.546Z,11.10
2019-03-25T05:19:44.946Z,12.10
2019-03-25T05:24:53.500Z,12.01
2019-03-25T05:30:01.945Z,9.68
2019-03-25T05:35:10.532Z,10.56
2019-03-25T05:40:18.971Z,13.50
2019-03-25T05:45:27.460Z,11.95
2019-03-25T05:50:35.944Z,12.56
2019-03-25T05:55:44.678Z,11.12
2019-03-25T06:00:53.130Z,12.29
2019-03-25T06:06:01.801Z,10.03
2019-03-25T06:11:10.245Z,12.51
2019-03-25T06:16:18.790Z,11.72
2019-03-25T06:21:27.316Z,12.25
2019-03-25T06:26:35.790Z,13.10
2019-03-25T06:31:44.269Z,14.16
2019-03-25T06:36:52.674Z,13.08
2019-03-25T06:42:01.101Z,12.11
2019-03-25T06:47:09.667Z,11.96
2019-03-25T06:52:18.185Z,13.57
2019-03-25T06:57:26.630Z,12.16
2019-03-25T07:02:35.039Z,11.67
2019-03-25T07:07:43.485Z,12.26
2019-03-25T07:12:52.822Z,11.41
2019-03-25T07:18:01.230Z,11.95
2019-03-25T07:28:16.790Z,12.60
2019-03-25T07:33:25.891Z,14.51
2019-03-25T07:38:34.482Z,13.30
2019-03-25T07:43:42.824Z,11.72
2019-03-25T07:48:51.245Z,12.88
2019-03-25T07:53:58.287Z,18.14
2019-03-25T07:59:06.717Z,14.78
2019-03-25T08:04:15.286Z,14.39
2019-03-25T08:09:23.729Z,12.05
2019-03-25T08:14:32.185Z,11.35
2019-03-25T08:19:40.731Z,10.03
2019-03-25T08:24:49.144Z,9.19
2019-03-25T08:29:57.685Z,9.92
2019-03-25T08:35:06.174Z,7.98
2019-03-25T08:40:14.678Z,8.43
2019-03-25T08:45:23.189Z,10.84
2019-03-25T08:50:31.609Z,10.29
2019-03-25T08:55:40.065Z,10.42
2019-03-25T09:00:48.117Z,7.97
2019-03-25T09:05:55.685Z,9.69
2019-03-25T09:11:06.893Z,9.91
2019-03-25T09:16:12.060Z,8.20
2019-03-25T09:21:21.011Z,9.63
2019-03-25T09:26:29.950Z,8.11
2019-03-25T09:31:38.374Z,7.89
2019-03-25T09:36:46.797Z,7.44
2019-03-25T09:41:55.503Z,10.32
2019-03-25T09:47:04.052Z,12.67
2019-03-25T09:57:19.705Z,7.38
2019-03-25T10:02:28.619Z,6.53
2019-03-25T10:07:37.461Z,7.25
2019-03-25T10:12:46.374Z,5.75
2019-03-25T10:17:55.341Z,9.40
2019-03-25T10:23:04.248Z,9.31
2019-03-25T10:28:13.159Z,8.84
2019-03-25T10:33:21.574Z,7.72
2019-03-25T10:38:30.665Z,8.19
2019-03-25T10:43:39.647Z,6.51
2019-03-25T10:48:48.562Z,8.99
2019-03-25T10:53:57.464Z,9.38
2019-03-25T10:59:06.500Z,9.69
2019-03-25T11:04:15.595Z,8.32
2019-03-25T11:09:24.862Z,9.41
2019-03-25T11:14:33.324Z,10.43
2019-03-25T11:19:42.448Z,8.12
2019-03-25T11:24:50.842Z,9.08
2019-03-25T11:29:59.364Z,8.85
2019-03-25T11:35:07.754Z,9.31
2019-03-25T11:40:16.249Z,7.65
2019-03-25T11:45:24.720Z,5.95
2019-03-25T11:50:33.248Z,5.18
2019-03-25T11:55:41.580Z,2.84
2019-03-25T12:05:57.655Z,2.98
2019-03-25T12:11:06.446Z,2.53
2019-03-25T12:16:15.591Z,4.71
2019-03-25T12:21:24.726Z,2.67
2019-03-25T12:26:33.704Z,4.01
2019-03-25T12:31:42.765Z,6.22
2019-03-25T12:36:51.831Z,4.37
2019-03-25T12:42:04.166Z,3.22
2019-03-25T12:47:02.611Z,4.69
2019-03-25T12:52:11.510Z,3.65
2019-03-25T12:57:19.984Z,4.56
2019-03-25T13:02:28.915Z,4.68
2019-03-25T13:07:37.564Z,3.03
2019-03-25T13:12:46.097Z,4.59
2019-03-25T13:17:54.558Z,2.28
2019-03-25T13:23:03.071Z,4.96
2019-03-25T13:28:11.630Z,2.40
2019-03-25T13:33:20.239Z,1.48
2019-03-25T13:38:28.772Z,1.30
2019-03-25T13:43:38.143Z,1.39
2019-03-25T13:48:45.709Z,1.60
2019-03-25T13:53:54.159Z,1.78
2019-03-25T13:59:02.592Z,1.87
2019-03-25T14:04:13.047Z,3.65
2019-03-25T14:09:10.040Z,2.00
2019-03-25T14:14:18.601Z,1.58
2019-03-25T14:19:29.186Z,2.18
2019-03-25T14:24:35.056Z,2.22
2019-03-25T14:29:43.429Z,2.71
2019-03-25T14:34:51.864Z,3.12
2019-03-25T14:40:00.385Z,2.59
2019-03-25T14:45:09.238Z,2.41
2019-03-25T14:50:18.198Z,3.41
2019-03-25T14:55:33.541Z,2.64
2019-03-25T15:00:32.398Z,2.67
2019-03-25T15:05:41.340Z,2.74
2019-03-25T15:10:53.760Z,2.72
2019-03-25T15:16:04.570Z,3.21
2019-03-25T15:21:03.454Z,1.62
2019-03-25T15:26:12.616Z,2.30
2019-03-25T15:31:21.686Z,1.68
2019-03-25T15:36:30.660Z,1.78
2019-03-25T15:41:39.775Z,1.61
2019-03-25T15:46:55.984Z,1.77
2019-03-25T15:51:54.797Z,3.38
2019-03-25T15:56:53.173Z,3.32
2019-03-25T16:02:02.362Z,4.30
2019-03-25T16:07:12.028Z,2.75
2019-03-25T16:12:20.715Z,3.04
2019-03-25T16:17:29.254Z,5.92
2019-03-25T16:22:38.431Z,4.32
2019-03-25T16:27:47.360Z,5.07
2019-03-25T16:32:56.377Z,5.73
2019-03-25T16:38:05.332Z,5.68
2019-03-25T16:43:15.164Z,4.09
2019-03-25T16:48:25.074Z,5.11
2019-03-25T16:53:34.426Z,4.38
2019-03-25T16:58:43.527Z,5.05
2019-03-25T17:04:11.639Z,5.31
2019-03-25T17:08:59.877Z,3.23
2019-03-25T17:14:09.818Z,3.80
2019-03-25T17:19:19.433Z,2.95
2019-03-25T17:24:28.693Z,3.32
2019-03-25T17:29:36.338Z,5.23
2019-03-25T17:34:45.422Z,4.22
2019-03-25T17:39:54.925Z,1.69
2019-03-25T17:45:03.947Z,1.98
2019-03-25T17:50:13.614Z,1.92
2019-03-25T17:55:22.789Z,2.56
2019-03-25T18:00:32.654Z,1.52
2019-03-25T18:05:42.755Z,1.87
2019-03-25T18:10:42.773Z,1.91
2019-03-25T18:15:43.101Z,1.40
2019-03-25T18:20:42.204Z,2.66
2019-03-25T18:25:51.298Z,2.34
2019-03-25T18:31:00.505Z,2.24
2019-03-25T18:36:09.590Z,1.37
2019-03-25T18:41:18.736Z,1.27
2019-03-25T18:46:27.421Z,2.45
2019-03-25T18:51:36.143Z,2.06
2019-03-25T18:56:45.318Z,2.57
2019-03-25T19:01:54.744Z,1.31
2019-03-25T19:07:02.051Z,1.64
2019-03-25T19:12:10.771Z,2.86
2019-03-25T19:17:19.245Z,1.37
2019-03-25T19:22:32.818Z,2.96
2019-03-25T19:27:31.448Z,0.78
2019-03-25T19:32:40.510Z,2.56
2019-03-25T19:37:48.961Z,2.51
2019-03-25T19:42:57.459Z,2.34
2019-03-25T19:48:05.888Z,2.60
2019-03-25T19:58:21.478Z,2.35
2019-03-25T20:03:34.581Z,2.35
2019-03-25T20:08:32.980Z,3.04
2019-03-25T20:13:41.643Z,2.39
2019-03-25T20:18:50.349Z,3.27
2019-03-25T20:23:58.834Z,1.87
2019-03-25T20:29:07.496Z,2.61
2019-03-25T20:34:16.066Z,4.00
2019-03-25T20:39:23.157Z,3.65
2019-03-25T20:44:31.609Z,3.31
2019-03-25T20:49:40.133Z,2.74
2019-03-25T20:54:48.841Z,3.14
2019-03-25T20:59:57.342Z,2.86
2019-03-25T21:05:07.092Z,2.89
2019-03-25T21:10:20.786Z,3.14
2019-03-25T21:15:19.722Z,2.65
2019-03-25T21:20:32.529Z,3.78
2019-03-25T21:25:30.924Z,2.76
2019-03-25T21:30:47.944Z,2.82
2019-03-25T21:35:47.734Z,3.68
2019-03-25T21:41:00.447Z,2.67
2019-03-25T21:45:59.140Z,2.99
2019-03-25T21:51:09.995Z,3.02
2019-03-25T21:56:08.201Z,3.05
2019-03-25T22:01:18.837Z,3.96
2019-03-25T22:06:17.218Z,3.48
2019-03-25T22:11:26.294Z,5.60
2019-03-25T22:16:34.828Z,6.18
2019-03-25T22:21:43.468Z,3.83
2019-03-25T22:26:51.967Z,5.50
2019-03-25T22:32:01.158Z,4.62
2019-03-25T22:37:09.690Z,5.43
2019-03-25T22:42:18.735Z,4.37
2019-03-25T22:47:27.093Z,4.49
2019-03-25T22:52:35.549Z,6.56
2019-03-25T22:57:44.031Z,6.65
2019-03-25T23:02:52.516Z,5.79
2019-03-25T23:08:01.231Z,4.83
2019-03-25T23:13:09.943Z,5.73
2019-03-25T23:18:20.062Z,3.51
2019-03-25T23:23:18.453Z,4.45
2019-03-25T23:28:26.895Z,4.48
2019-03-25T23:33:35.370Z,4.52
2019-03-25T23:38:43.884Z,5.84
2019-03-25T23:43:51.039Z,5.90
2019-03-25T23:48:59.503Z,5.83
2019-03-25T23:54:08.189Z,5.43
2019-03-25T23:59:16.851Z,5.23
